»·PEaware :: N195PS KOSH-KOSH

N195PS :: KOSH-KOSH

FLIGHT INFORMATION

Flight Status: Arrived
Operator: Privately registered:
United States
More flights under this callsign
Pilot: Philippe D. (30943)
Aircraft: CESSNA 172 SKYHAWK
(C172)
More flights by this aircraft type
Origin: KOSH Wittman Regl
United States
Destination: KOSH Wittman Regl
United States
More flights between these airports :: More routes between these airports
Route: KFDL
File this flight plan on PilotEdge
Remarks:
Altitude:
(Current/Filed)
2,500ft
Speed:
(Current/Filed)
105kts
Departed: 17-Jul-21 01:13 PM
Arrived: 17-Jul-21 02:12 PM
Distance/Time
Traveled:
1nm/0:59
Distance/Time
To Go:
Arrived

Flight Plot

Page will automatically refresh every two minutes.

Flight plan parsing failed; only flown route is shown


Map Options




Map Legend


Flown Route
Filed Route
Departure Airport
Arrival Airport
Navaid (VOR, NDB)
Fix

Horizontal Profiles

Position Reports

Time Latitude Longitude Heading Altitude Ground
Speed
17-Jul-21 13:05 43.990386 -88.565152 90 780ft 0kts
17-Jul-21 13:06 43.990386 -88.565152 90 780ft 0kts
17-Jul-21 13:07 43.990386 -88.565152 90 780ft 0kts
17-Jul-21 13:08 43.990386 -88.565152 90 780ft 0kts
17-Jul-21 13:10 43.990386 -88.565152 90 780ft 0kts
17-Jul-21 13:10 43.990760 -88.560064 94 781ft 19kts
17-Jul-21 13:11 43.988025 -88.554391 154 784ft 16kts
17-Jul-21 13:12 43.983288 -88.554384 180 792ft 67kts
17-Jul-21 13:13 43.959505 -88.544632 145 1440ft 113kts
17-Jul-21 13:14 43.931303 -88.516109 144 1319ft 128kts
17-Jul-21 13:15 43.902508 -88.488248 151 1313ft 125kts
17-Jul-21 13:16 43.870693 -88.482630 175 1858ft 112kts
17-Jul-21 13:17 43.838443 -88.481046 200 1864ft 111kts
17-Jul-21 13:18 43.814829 -88.506979 190 1607ft 112kts
17-Jul-21 13:19 43.793389 -88.478178 154 1657ft 113kts
17-Jul-21 13:20 43.762562 -88.472185 179 1657ft 103kts
17-Jul-21 13:21 43.750192 -88.485552 327 1148ft 72kts
17-Jul-21 13:22 43.768740 -88.486236 0 797ft 30kts
17-Jul-21 13:23 43.770151 -88.485115 103 791ft 6kts
17-Jul-21 13:24 43.770141 -88.485003 90 791ft 0kts
17-Jul-21 13:25 43.770141 -88.485003 90 791ft 0kts
17-Jul-21 13:26 43.770141 -88.485003 90 791ft 0kts
17-Jul-21 13:27 43.770141 -88.485003 90 791ft 0kts
17-Jul-21 13:28 43.771147 -88.485248 115 789ft 7kts
17-Jul-21 13:29 43.770877 -88.485374 355 789ft 0kts
17-Jul-21 13:30 43.771437 -88.498364 264 955ft 92kts
17-Jul-21 13:31 43.769237 -88.535252 271 1934ft 96kts
17-Jul-21 13:32 43.769617 -88.574043 265 2687ft 105kts
17-Jul-21 13:33 43.767055 -88.615936 268 3126ft 110kts
17-Jul-21 13:34 43.765519 -88.660544 261 2857ft 129kts
17-Jul-21 13:35 43.762160 -88.705939 270 2628ft 109kts
17-Jul-21 13:36 43.761216 -88.749715 266 2209ft 117kts
17-Jul-21 13:37 43.758791 -88.791576 265 2155ft 102kts
17-Jul-21 13:38 43.756070 -88.831951 264 2106ft 105kts
17-Jul-21 13:39 43.753263 -88.872061 264 2104ft 105kts
17-Jul-21 13:40 43.750906 -88.912290 265 2100ft 105kts
17-Jul-21 13:41 43.748717 -88.951629 265 2102ft 105kts
17-Jul-21 13:42 43.747479 -88.974021 265 2097ft 105kts
17-Jul-21 13:43 43.745162 -89.015389 265 1872ft 111kts
17-Jul-21 13:44 43.742904 -89.056623 265 1802ft 105kts
17-Jul-21 13:45 43.738529 -89.096243 261 1817ft 104kts
17-Jul-21 13:46 43.730447 -89.136175 253 1883ft 115kts
17-Jul-21 13:47 43.721527 -89.178273 248 2015ft 117kts
17-Jul-21 13:48 43.712775 -89.222632 279 1811ft 119kts
17-Jul-21 13:49 43.732995 -89.225234 74 1801ft 122kts
17-Jul-21 13:50 43.741166 -89.179726 80 1800ft 122kts
17-Jul-21 13:51 43.746694 -89.133253 80 1800ft 122kts
17-Jul-21 13:52 43.752133 -89.086854 80 1799ft 122kts
17-Jul-21 13:53 43.758265 -89.040583 65 1800ft 121kts
17-Jul-21 13:54 43.782335 -89.008662 42 1800ft 119kts
17-Jul-21 13:55 43.799162 -88.978894 62 1798ft 91kts
17-Jul-21 13:56 43.806683 -88.943521 76 1803ft 100kts
17-Jul-21 13:57 43.812842 -88.915576 65 1801ft 101kts
17-Jul-21 13:58 43.825237 -88.883112 60 1799ft 101kts
17-Jul-21 13:59 43.839039 -88.849806 53 1799ft 100kts
17-Jul-21 14:00 43.856865 -88.819848 49 1801ft 101kts
17-Jul-21 14:01 43.873202 -88.789626 52 1799ft 96kts
17-Jul-21 14:02 43.889997 -88.761218 46 1800ft 95kts
17-Jul-21 14:03 43.908841 -88.735480 43 1800ft 96kts
17-Jul-21 14:04 43.928151 -88.710260 36 1800ft 95kts
17-Jul-21 14:05 43.949408 -88.688236 40 1804ft 95kts
17-Jul-21 14:06 43.965781 -88.659856 55 1858ft 91kts
17-Jul-21 14:07 43.979860 -88.628634 58 1742ft 103kts
17-Jul-21 14:08 43.993967 -88.597149 56 1716ft 100kts
17-Jul-21 14:09 43.998748 -88.564575 85 1389ft 80kts
17-Jul-21 14:10 43.991499 -88.553963 267 867ft 69kts
17-Jul-21 14:11 43.992324 -88.566953 277 782ft 16kts
17-Jul-21 14:12 43.991489 -88.573780 169 781ft 14kts
17-Jul-21 14:13 43.990524 -88.569231 93 779ft 0kts
17-Jul-21 14:14 43.990524 -88.569231 93 779ft 0kts
17-Jul-21 14:15 43.990524 -88.569231 93 779ft 0kts

Navigation Log

Ident Type
Flight plan parsing failed, navigation log unavailable